sensor_id;sensor_type;location;lat;lon;timestamp;pressure;altitude;pressure_sealevel;temperature;humidity
73316;BME280;61545;53.726;-0.444;2023-04-15T00:00:02;1007.5;;;6.7;100.0
73316;BME280;61545;53.726;-0.444;2023-04-15T00:05:02;1007.5;;;6.7;100.0
73316;BME280;61545;53.726;-0.444;2023-04-15T00:10:02;1007.5;;;6.6;100.0
73316;BME280;61545;53.726;-0.444;2023-04-15T00:15:02;1007.5;;;6.6;100.0
73316;BME280;61545;53.726;-0.444;2023-04-15T00:20:02;1007.6;;;6.6;100.0
73316;BME280;61545;53.726;-0.444;2023-04-15T00:25:02;1007.6;;;6.5;100.0
73316;BME280;61545;53.726;-0.444;2023-04-15T00:30:02;1007.6;;;6.5;100.0
73316;BME280;61545;53.726;-0.444;2023-04-15T00:35:02;1007.7;;;6.5;100.0
73316;BME280;61545;53.726;-0.444;2023-04-15T00:40:02;1007.7;;;6.5;100.0
73316;BME280;61545;53.726;-0.444;2023-04-15T00:45:02;1007.8;;;6.5;100.0
73316;BME280;61545;53.726;-0.444;2023-04-15T00:50:02;1007.9;;;6.5;100.0
73316;BME280;61545;53.726;-0.444;2023-04-15T00:55:02;1007.9;;;6.5;100.0
73316;BME280;61545;53.726;-0.444;2023-04-15T01:00:03;1007.9;;;6.5;100.0
73316;BME280;61545;53.726;-0.444;2023-04-15T01:05:03;1007.9;;;6.5;100.0
73316;BME280;61545;53.726;-0.444;2023-04-15T01:10:02;1008.0;;;6.5;100.0
73316;BME280;61545;53.726;-0.444;2023-04-15T01:15:02;1008.1;;;6.5;100.0
73316;BME280;61545;53.726;-0.444;2023-04-15T01:20:02;1008.1;;;6.5;100.0
73316;BME280;61545;53.726;-0.444;2023-04-15T01:25:05;1008.2;;;6.4;100.0
73316;BME280;61545;53.726;-0.444;2023-04-15T01:30:03;1008.2;;;6.5;100.0
73316;BME280;61545;53.726;-0.444;2023-04-15T01:35:02;1008.2;;;6.5;100.0
73316;BME280;61545;53.726;-0.444;2023-04-15T01:40:02;1008.2;;;6.5;100.0
73316;BME280;61545;53.726;-0.444;2023-04-15T01:45:02;1008.2;;;6.5;100.0
73316;BME280;61545;53.726;-0.444;2023-04-15T01:50:03;1008.3;;;6.5;100.0
73316;BME280;61545;53.726;-0.444;2023-04-15T01:55:02;1008.3;;;6.5;100.0
73316;BME280;61545;53.726;-0.444;2023-04-15T02:00:03;1008.3;;;6.5;100.0
73316;BME280;61545;53.726;-0.444;2023-04-15T02:05:02;1008.4;;;6.5;100.0
73316;BME280;61545;53.726;-0.444;2023-04-15T02:10:02;1008.5;;;6.4;100.0
73316;BME280;61545;53.726;-0.444;2023-04-15T02:15:03;1008.6;;;6.4;100.0
73316;BME280;61545;53.726;-0.444;2023-04-15T02:20:02;1008.6;;;6.5;100.0
73316;BME280;61545;53.726;-0.444;2023-04-15T02:25:02;1008.6;;;6.5;100.0
73316;BME280;61545;53.726;-0.444;2023-04-15T02:30:03;1008.6;;;6.5;100.0
73316;BME280;61545;53.726;-0.444;2023-04-15T02:35:02;1008.7;;;6.5;100.0
73316;BME280;61545;53.726;-0.444;2023-04-15T02:40:02;1008.8;;;6.5;100.0
73316;BME280;61545;53.726;-0.444;2023-04-15T02:45:02;1008.8;;;6.5;100.0
73316;BME280;61545;53.726;-0.444;2023-04-15T02:50:02;1008.8;;;6.5;100.0
73316;BME280;61545;53.726;-0.444;2023-04-15T02:55:02;1008.9;;;6.5;100.0
73316;BME280;61545;53.726;-0.444;2023-04-15T03:00:02;1008.9;;;6.5;100.0
73316;BME280;61545;53.726;-0.444;2023-04-15T03:05:02;1009.0;;;6.5;100.0
73316;BME280;61545;53.726;-0.444;2023-04-15T03:10:02;1009.0;;;6.5;100.0
73316;BME280;61545;53.726;-0.444;2023-04-15T03:15:02;1009.1;;;6.5;100.0
73316;BME280;61545;53.726;-0.444;2023-04-15T03:20:03;1009.1;;;6.5;100.0
73316;BME280;61545;53.726;-0.444;2023-04-15T03:25:02;1009.2;;;6.5;100.0
73316;BME280;61545;53.726;-0.444;2023-04-15T03:30:03;1009.2;;;6.5;100.0
73316;BME280;61545;53.726;-0.444;2023-04-15T03:35:02;1009.4;;;6.5;100.0
73316;BME280;61545;53.726;-0.444;2023-04-15T03:40:02;1009.5;;;6.4;100.0
73316;BME280;61545;53.726;-0.444;2023-04-15T03:45:03;1009.5;;;6.4;100.0
73316;BME280;61545;53.726;-0.444;2023-04-15T03:50:02;1009.7;;;6.5;100.0
73316;BME280;61545;53.726;-0.444;2023-04-15T03:55:02;1009.8;;;6.5;100.0
73316;BME280;61545;53.726;-0.444;2023-04-15T04:00:02;1009.8;;;6.5;100.0
73316;BME280;61545;53.726;-0.444;2023-04-15T04:05:02;1009.8;;;6.5;100.0
73316;BME280;61545;53.726;-0.444;2023-04-15T04:10:02;1009.9;;;6.4;100.0
73316;BME280;61545;53.726;-0.444;2023-04-15T04:15:02;1009.9;;;6.5;100.0
73316;BME280;61545;53.726;-0.444;2023-04-15T04:20:02;1009.9;;;6.5;100.0
73316;BME280;61545;53.726;-0.444;2023-04-15T04:25:02;1010.0;;;6.5;100.0
73316;BME280;61545;53.726;-0.444;2023-04-15T04:30:03;1010.0;;;6.5;100.0
73316;BME280;61545;53.726;-0.444;2023-04-15T04:35:02;1010.1;;;6.5;100.0
73316;BME280;61545;53.726;-0.444;2023-04-15T04:40:03;1010.2;;;6.4;100.0
73316;BME280;61545;53.726;-0.444;2023-04-15T04:45:02;1010.2;;;6.5;100.0
73316;BME280;61545;53.726;-0.444;2023-04-15T04:50:03;1010.3;;;6.5;100.0
73316;BME280;61545;53.726;-0.444;2023-04-15T04:55:02;1010.4;;;6.5;100.0
73316;BME280;61545;53.726;-0.444;2023-04-15T05:00:03;1010.4;;;6.4;100.0
73316;BME280;61545;53.726;-0.444;2023-04-15T05:05:02;1010.5;;;6.4;100.0
73316;BME280;61545;53.726;-0.444;2023-04-15T05:10:03;1010.6;;;6.5;100.0
73316;BME280;61545;53.726;-0.444;2023-04-15T05:15:03;1010.7;;;6.4;100.0
73316;BME280;61545;53.726;-0.444;2023-04-15T05:20:02;1010.8;;;6.5;100.0
73316;BME280;61545;53.726;-0.444;2023-04-15T05:25:03;1010.9;;;6.4;100.0
73316;BME280;61545;53.726;-0.444;2023-04-15T05:30:03;1011.0;;;6.4;100.0
73316;BME280;61545;53.726;-0.444;2023-04-15T05:35:02;1011.2;;;6.4;100.0
73316;BME280;61545;53.726;-0.444;2023-04-15T05:40:02;1011.3;;;6.3;100.0
73316;BME280;61545;53.726;-0.444;2023-04-15T05:45:03;1011.5;;;6.3;100.0
73316;BME280;61545;53.726;-0.444;2023-04-15T05:50:03;1011.6;;;6.4;100.0
73316;BME280;61545;53.726;-0.444;2023-04-15T05:55:02;1011.7;;;6.8;100.0
73316;BME280;61545;53.726;-0.444;2023-04-15T06:00:03;1011.8;;;6.7;100.0
73316;BME280;61545;53.726;-0.444;2023-04-15T06:05:02;1011.9;;;6.5;100.0
73316;BME280;61545;53.726;-0.444;2023-04-15T06:10:03;1011.9;;;6.5;100.0
73316;BME280;61545;53.726;-0.444;2023-04-15T06:15:03;1012.0;;;6.5;100.0
73316;BME280;61545;53.726;-0.444;2023-04-15T06:20:03;1012.1;;;6.5;100.0
73316;BME280;61545;53.726;-0.444;2023-04-15T06:25:02;1012.2;;;6.5;100.0
73316;BME280;61545;53.726;-0.444;2023-04-15T06:30:03;1012.3;;;6.6;100.0
73316;BME280;61545;53.726;-0.444;2023-04-15T06:35:02;1012.5;;;6.7;100.0
73316;BME280;61545;53.726;-0.444;2023-04-15T06:40:02;1012.6;;;6.7;100.0
73316;BME280;61545;53.726;-0.444;2023-04-15T06:45:03;1012.8;;;6.7;100.0
73316;BME280;61545;53.726;-0.444;2023-04-15T06:50:03;1012.8;;;6.8;100.0
73316;BME280;61545;53.726;-0.444;2023-04-15T06:55:02;1013.0;;;6.8;100.0
73316;BME280;61545;53.726;-0.444;2023-04-15T07:00:03;1013.0;;;6.9;100.0
73316;BME280;61545;53.726;-0.444;2023-04-15T07:05:04;1013.1;;;7.2;100.0
73316;BME280;61545;53.726;-0.444;2023-04-15T07:10:02;1013.1;;;7.4;100.0
73316;BME280;61545;53.726;-0.444;2023-04-15T07:15:03;1013.2;;;7.2;100.0
73316;BME280;61545;53.726;-0.444;2023-04-15T07:20:02;1013.3;;;7.2;100.0
73316;BME280;61545;53.726;-0.444;2023-04-15T07:25:03;1013.4;;;7.4;100.0
73316;BME280;61545;53.726;-0.444;2023-04-15T07:30:03;1013.4;;;8.0;100.0
73316;BME280;61545;53.726;-0.444;2023-04-15T07:35:02;1013.5;;;8.1;100.0
73316;BME280;61545;53.726;-0.444;2023-04-15T07:40:02;1013.6;;;9.1;100.0
73316;BME280;61545;53.726;-0.444;2023-04-15T07:45:02;1013.6;;;9.9;100.0
73316;BME280;61545;53.726;-0.444;2023-04-15T07:50:02;1013.8;;;9.3;100.0
73316;BME280;61545;53.726;-0.444;2023-04-15T07:55:02;1013.9;;;8.9;100.0
73316;BME280;61545;53.726;-0.444;2023-04-15T08:00:03;1014.0;;;8.5;100.0
73316;BME280;61545;53.726;-0.444;2023-04-15T08:05:02;1013.9;;;8.5;100.0
73316;BME280;61545;53.726;-0.444;2023-04-15T08:10:03;1013.9;;;8.4;100.0
73316;BME280;61545;53.726;-0.444;2023-04-15T08:15:03;1014.1;;;8.4;100.0
73316;BME280;61545;53.726;-0.444;2023-04-15T08:20:03;1014.2;;;unknown;100.0
73316;BME280;61545;53.726;-0.444;2023-04-15T08:25:02;1014.2;;;8.5;100.0
73316;BME280;61545;53.726;-0.444;2023-04-15T08:30:03;1014.3;;;8.6;100.0
73316;BME280;61545;53.726;-0.444;2023-04-15T08:35:02;1014.3;;;8.9;100.0
73316;BME280;61545;53.726;-0.444;2023-04-15T08:40:03;1014.4;;;9.2;100.0
73316;BME280;61545;53.726;-0.444;2023-04-15T08:45:03;1014.6;;;9.1;100.0
73316;BME280;61545;53.726;-0.444;2023-04-15T08:50:03;1014.6;;;8.9;100.0
73316;BME280;61545;53.726;-0.444;2023-04-15T08:55:02;1014.7;;;8.9;100.0
73316;BME280;61545;53.726;-0.444;2023-04-15T09:00:03;1014.7;;;9.0;100.0
73316;BME280;61545;53.726;-0.444;2023-04-15T09:05:02;1014.8;;;8.8;100.0
73316;BME280;61545;53.726;-0.444;2023-04-15T09:10:02;1014.8;;;9.0;100.0
73316;BME280;61545;53.726;-0.444;2023-04-15T09:15:02;1015.0;;;9.0;100.0
73316;BME280;61545;53.726;-0.444;2023-04-15T09:20:10;1015.0;;;8.9;100.0
73316;BME280;61545;53.726;-0.444;2023-04-15T09:25:03;1015.1;;;9.0;100.0
73316;BME280;61545;53.726;-0.444;2023-04-15T09:30:07;1015.2;;;9.0;100.0
73316;BME280;61545;53.726;-0.444;2023-04-15T09:35:10;1015.3;;;8.9;100.0
73316;BME280;61545;53.726;-0.444;2023-04-15T09:40:03;1015.4;;;8.8;100.0
73316;BME280;61545;53.726;-0.444;2023-04-15T09:45:07;1015.5;;;8.9;100.0
73316;BME280;61545;53.726;-0.444;2023-04-15T09:50:02;1015.6;;;8.9;100.0
73316;BME280;61545;53.726;-0.444;2023-04-15T09:55:02;1015.6;;;8.9;100.0
73316;BME280;61545;53.726;-0.444;2023-04-15T10:00:03;1015.7;;;8.9;100.0
73316;BME280;61545;53.726;-0.444;2023-04-15T10:05:02;1015.7;;;9.0;100.0
73316;BME280;61545;53.726;-0.444;2023-04-15T10:10:03;1015.8;;;9.2;100.0
73316;BME280;61545;53.726;-0.444;2023-04-15T10:15:03;1015.8;;;9.2;100.0
73316;BME280;61545;53.726;-0.444;2023-04-15T10:20:04;1015.9;;;9.2;100.0
73316;BME280;61545;53.726;-0.444;2023-04-15T10:25:02;1016.0;;;9.4;100.0
73316;BME280;61545;53.726;-0.444;2023-04-15T10:30:03;1016.1;;;9.6;100.0
73316;BME280;61545;53.726;-0.444;2023-04-15T10:35:03;1016.2;;;9.7;100.0
73316;BME280;61545;53.726;-0.444;2023-04-15T10:40:34;1016.2;;;10.0;100.0
73316;BME280;61545;53.726;-0.444;2023-04-15T10:45:03;1016.3;;;10.2;100.0
73316;BME280;61545;53.726;-0.444;2023-04-15T10:50:02;1016.4;;;10.4;100.0
73316;BME280;61545;53.726;-0.444;2023-04-15T10:55:03;1016.4;;;10.5;100.0
73316;BME280;61545;53.726;-0.444;2023-04-15T11:00:09;1016.3;;;11.1;100.0
73316;BME280;61545;53.726;-0.444;2023-04-15T11:05:02;1016.4;;;11.3;100.0
73316;BME280;61545;53.726;-0.444;2023-04-15T11:10:03;1016.3;;;12.7;100.0
73316;BME280;61545;53.726;-0.444;2023-04-15T11:15:35;1016.4;;;12.0;100.0
73316;BME280;61545;53.726;-0.444;2023-04-15T11:20:03;1016.5;;;12.4;100.0
73316;BME280;61545;53.726;-0.444;2023-04-15T11:25:03;1016.5;;;12.0;100.0
73316;BME280;61545;53.726;-0.444;2023-04-15T11:30:16;1016.5;;;12.5;100.0
73316;BME280;61545;53.726;-0.444;2023-04-15T11:35:02;1016.6;;;12.3;100.0
73316;BME280;61545;53.726;-0.444;2023-04-15T11:40:03;1016.6;;;12.2;100.0
73316;BME280;61545;53.726;-0.444;2023-04-15T11:45:06;1016.5;;;12.4;100.0
73316;BME280;61545;53.726;-0.444;2023-04-15T11:50:18;1016.5;;;12.7;100.0
73316;BME280;61545;53.726;-0.444;2023-04-15T11:55:03;1016.5;;;12.6;100.0
73316;BME280;61545;53.726;-0.444;2023-04-15T12:00:03;1016.5;;;12.0;100.0
73316;BME280;61545;53.726;-0.444;2023-04-15T12:05:03;1016.5;;;12.7;100.0
73316;BME280;61545;53.726;-0.444;2023-04-15T12:10:03;1016.5;;;12.1;100.0
73316;BME280;61545;53.726;-0.444;2023-04-15T12:15:02;1016.6;;;12.1;100.0
73316;BME280;61545;53.726;-0.444;2023-04-15T12:20:02;1016.6;;;12.3;100.0
73316;BME280;61545;53.726;-0.444;2023-04-15T12:25:03;1016.5;;;12.4;100.0
73316;BME280;61545;53.726;-0.444;2023-04-15T12:30:03;1016.6;;;12.2;100.0
73316;BME280;61545;53.726;-0.444;2023-04-15T12:35:02;1016.7;;;12.2;100.0
73316;BME280;61545;53.726;-0.444;2023-04-15T12:40:02;1016.8;;;12.4;100.0
73316;BME280;61545;53.726;-0.444;2023-04-15T12:45:03;1016.7;;;13.0;100.0
73316;BME280;61545;53.726;-0.444;2023-04-15T12:50:03;1016.8;;;12.6;100.0
73316;BME280;61545;53.726;-0.444;2023-04-15T12:55:02;1017.0;;;12.3;100.0
73316;BME280;61545;53.726;-0.444;2023-04-15T13:00:03;1017.1;;;12.2;100.0
73316;BME280;61545;53.726;-0.444;2023-04-15T13:05:02;1017.0;;;12.4;100.0
73316;BME280;61545;53.726;-0.444;2023-04-15T13:10:03;1017.0;;;13.2;100.0
73316;BME280;61545;53.726;-0.444;2023-04-15T13:15:02;1017.1;;;13.4;100.0
73316;BME280;61545;53.726;-0.444;2023-04-15T13:20:03;1017.1;;;13.2;100.0
73316;BME280;61545;53.726;-0.444;2023-04-15T13:25:03;1017.2;;;13.5;100.0
73316;BME280;61545;53.726;-0.444;2023-04-15T13:30:03;1017.3;;;13.1;100.0
73316;BME280;61545;53.726;-0.444;2023-04-15T13:35:03;1017.3;;;13.0;100.0
73316;BME280;61545;53.726;-0.444;2023-04-15T13:40:03;1017.4;;;13.2;100.0
73316;BME280;61545;53.726;-0.444;2023-04-15T13:45:03;1017.4;;;12.9;100.0
73316;BME280;61545;53.726;-0.444;2023-04-15T13:50:03;1017.4;;;12.9;100.0
73316;BME280;61545;53.726;-0.444;2023-04-15T13:55:03;1017.6;;;13.0;100.0
73316;BME280;61545;53.726;-0.444;2023-04-15T14:00:03;1017.5;;;13.1;100.0
73316;BME280;61545;53.726;-0.444;2023-04-15T14:05:02;1017.5;;;13.1;100.0
73316;BME280;61545;53.726;-0.444;2023-04-15T14:10:03;1017.6;;;12.7;100.0
73316;BME280;61545;53.726;-0.444;2023-04-15T14:15:03;1017.6;;;12.5;100.0
73316;BME280;61545;53.726;-0.444;2023-04-15T14:20:03;1017.8;;;13.0;100.0
73316;BME280;61545;53.726;-0.444;2023-04-15T14:25:03;1017.9;;;12.7;100.0
73316;BME280;61545;53.726;-0.444;2023-04-15T14:30:03;1017.9;;;12.9;100.0
73316;BME280;61545;53.726;-0.444;2023-04-15T14:35:02;1018.0;;;12.9;100.0
73316;BME280;61545;53.726;-0.444;2023-04-15T14:40:02;1018.0;;;12.5;100.0
73316;BME280;61545;53.726;-0.444;2023-04-15T14:45:03;1018.0;;;12.4;100.0
73316;BME280;61545;53.726;-0.444;2023-04-15T14:50:02;1018.0;;;12.5;100.0
73316;BME280;61545;53.726;-0.444;2023-04-15T14:55:03;1018.1;;;12.0;100.0
73316;BME280;61545;53.726;-0.444;2023-04-15T15:00:03;1018.1;;;12.1;100.0
73316;BME280;61545;53.726;-0.444;2023-04-15T15:05:02;1018.2;;;11.9;100.0
73316;BME280;61545;53.726;-0.444;2023-04-15T15:10:03;1018.3;;;12.3;100.0
73316;BME280;61545;53.726;-0.444;2023-04-15T15:15:03;1018.3;;;12.7;100.0
73316;BME280;61545;53.726;-0.444;2023-04-15T15:20:03;1018.4;;;12.2;100.0
73316;BME280;61545;53.726;-0.444;2023-04-15T15:25:02;1018.4;;;12.2;100.0
73316;BME280;61545;53.726;-0.444;2023-04-15T15:30:02;1018.4;;;12.0;100.0
73316;BME280;61545;53.726;-0.444;2023-04-15T15:35:02;1018.6;;;11.9;100.0
73316;BME280;61545;53.726;-0.444;2023-04-15T15:40:03;1018.5;;;11.8;100.0
73316;BME280;61545;53.726;-0.444;2023-04-15T15:45:03;1018.5;;;11.7;100.0
73316;BME280;61545;53.726;-0.444;2023-04-15T15:50:02;1018.6;;;11.6;100.0
73316;BME280;61545;53.726;-0.444;2023-04-15T15:55:03;1018.7;;;11.5;100.0
73316;BME280;61545;53.726;-0.444;2023-04-15T16:00:03;1018.6;;;11.5;100.0
73316;BME280;61545;53.726;-0.444;2023-04-15T16:05:02;1018.6;;;11.5;100.0
73316;BME280;61545;53.726;-0.444;2023-04-15T16:10:03;1018.6;;;11.7;100.0
73316;BME280;61545;53.726;-0.444;2023-04-15T16:15:03;1018.6;;;11.7;100.0
73316;BME280;61545;53.726;-0.444;2023-04-15T16:20:03;1018.6;;;11.7;100.0
73316;BME280;61545;53.726;-0.444;2023-04-15T16:25:02;1018.6;;;11.7;100.0
73316;BME280;61545;53.726;-0.444;2023-04-15T16:30:03;1018.6;;;11.8;100.0
73316;BME280;61545;53.726;-0.444;2023-04-15T16:35:03;1018.6;;;11.7;100.0
73316;BME280;61545;53.726;-0.444;2023-04-15T16:40:03;1018.7;;;11.5;100.0
73316;BME280;61545;53.726;-0.444;2023-04-15T16:45:03;1018.7;;;11.5;100.0
73316;BME280;61545;53.726;-0.444;2023-04-15T16:50:03;1018.7;;;11.6;100.0
73316;BME280;61545;53.726;-0.444;2023-04-15T16:55:02;1018.7;;;11.5;100.0
73316;BME280;61545;53.726;-0.444;2023-04-15T17:00:03;1018.8;;;11.7;100.0
73316;BME280;61545;53.726;-0.444;2023-04-15T17:05:03;1018.9;;;11.4;100.0
73316;BME280;61545;53.726;-0.444;2023-04-15T17:10:02;1018.9;;;11.4;100.0
73316;BME280;61545;53.726;-0.444;2023-04-15T17:15:03;1018.9;;;11.2;100.0
73316;BME280;61545;53.726;-0.444;2023-04-15T17:20:03;1019.0;;;11.2;100.0
73316;BME280;61545;53.726;-0.444;2023-04-15T17:25:03;1019.0;;;11.2;100.0
73316;BME280;61545;53.726;-0.444;2023-04-15T17:30:03;1019.0;;;11.2;100.0
73316;BME280;61545;53.726;-0.444;2023-04-15T17:35:02;1019.1;;;11.0;100.0
73316;BME280;61545;53.726;-0.444;2023-04-15T17:40:03;1019.1;;;11.1;100.0
73316;BME280;61545;53.726;-0.444;2023-04-15T17:45:02;1019.1;;;11.0;100.0
73316;BME280;61545;53.726;-0.444;2023-04-15T17:50:02;1019.2;;;10.8;100.0
73316;BME280;61545;53.726;-0.444;2023-04-15T17:55:02;1019.2;;;10.7;100.0
73316;BME280;61545;53.726;-0.444;2023-04-15T18:00:03;1019.2;;;10.7;100.0
73316;BME280;61545;53.726;-0.444;2023-04-15T18:05:03;1019.2;;;10.5;100.0
73316;BME280;61545;53.726;-0.444;2023-04-15T18:10:03;1019.3;;;10.4;100.0
73316;BME280;61545;53.726;-0.444;2023-04-15T18:15:03;1019.4;;;10.3;100.0
73316;BME280;61545;53.726;-0.444;2023-04-15T18:20:02;1019.4;;;10.2;100.0
73316;BME280;61545;53.726;-0.444;2023-04-15T18:25:03;1019.5;;;10.0;100.0
73316;BME280;61545;53.726;-0.444;2023-04-15T18:30:03;1019.5;;;9.9;100.0
73316;BME280;61545;53.726;-0.444;2023-04-15T18:35:03;1019.6;;;9.9;100.0
73316;BME280;61545;53.726;-0.444;2023-04-15T18:40:03;1019.6;;;9.8;100.0
73316;BME280;61545;53.726;-0.444;2023-04-15T18:45:02;1019.6;;;9.7;100.0
73316;BME280;61545;53.726;-0.444;2023-04-15T18:50:02;1019.7;;;9.7;100.0
73316;BME280;61545;53.726;-0.444;2023-04-15T18:55:02;1019.8;;;9.6;100.0
73316;BME280;61545;53.726;-0.444;2023-04-15T19:00:03;1019.8;;;9.5;100.0
73316;BME280;61545;53.726;-0.444;2023-04-15T19:05:02;1019.9;;;9.4;100.0
73316;BME280;61545;53.726;-0.444;2023-04-15T19:10:05;1020.0;;;9.4;100.0
73316;BME280;61545;53.726;-0.444;2023-04-15T19:15:02;1020.1;;;9.3;100.0
73316;BME280;61545;53.726;-0.444;2023-04-15T19:20:03;1020.2;;;9.2;100.0
73316;BME280;61545;53.726;-0.444;2023-04-15T19:25:03;1020.3;;;9.2;100.0
73316;BME280;61545;53.726;-0.444;2023-04-15T19:30:03;1020.4;;;9.0;100.0
73316;BME280;61545;53.726;-0.444;2023-04-15T19:35:02;1020.4;;;9.1;100.0
73316;BME280;61545;53.726;-0.444;2023-04-15T19:40:03;1020.5;;;9.0;100.0
73316;BME280;61545;53.726;-0.444;2023-04-15T19:45:03;1020.5;;;8.9;100.0
73316;BME280;61545;53.726;-0.444;2023-04-15T19:50:03;1020.5;;;8.7;100.0
73316;BME280;61545;53.726;-0.444;2023-04-15T19:55:03;1020.6;;;8.7;100.0
73316;BME280;61545;53.726;-0.444;2023-04-15T20:00:02;1020.6;;;8.7;100.0
73316;BME280;61545;53.726;-0.444;2023-04-15T20:05:02;1020.7;;;8.7;100.0
73316;BME280;61545;53.726;-0.444;2023-04-15T20:10:02;1020.7;;;8.5;100.0
73316;BME280;61545;53.726;-0.444;2023-04-15T20:15:03;1020.7;;;8.5;100.0
73316;BME280;61545;53.726;-0.444;2023-04-15T20:20:03;1020.8;;;8.6;100.0
73316;BME280;61545;53.726;-0.444;2023-04-15T20:25:03;1020.8;;;8.5;100.0
73316;BME280;61545;53.726;-0.444;2023-04-15T20:30:03;1020.8;;;8.4;100.0
73316;BME280;61545;53.726;-0.444;2023-04-15T20:35:03;1020.9;;;8.3;100.0
73316;BME280;61545;53.726;-0.444;2023-04-15T20:40:03;1020.9;;;8.4;100.0
73316;BME280;61545;53.726;-0.444;2023-04-15T20:45:03;1020.9;;;8.4;100.0
73316;BME280;61545;53.726;-0.444;2023-04-15T20:50:03;1021.0;;;8.4;100.0
73316;BME280;61545;53.726;-0.444;2023-04-15T20:55:03;1021.1;;;8.3;100.0
73316;BME280;61545;53.726;-0.444;2023-04-15T21:00:03;1021.0;;;8.2;100.0
73316;BME280;61545;53.726;-0.444;2023-04-15T21:05:03;1021.1;;;8.2;100.0
73316;BME280;61545;53.726;-0.444;2023-04-15T21:10:03;1021.1;;;8.0;100.0
73316;BME280;61545;53.726;-0.444;2023-04-15T21:15:03;1021.1;;;8.2;100.0
73316;BME280;61545;53.726;-0.444;2023-04-15T21:20:03;1021.2;;;8.0;100.0
73316;BME280;61545;53.726;-0.444;2023-04-15T21:25:03;1021.1;;;7.8;100.0
73316;BME280;61545;53.726;-0.444;2023-04-15T21:30:03;1021.1;;;7.5;100.0
73316;BME280;61545;53.726;-0.444;2023-04-15T21:35:03;1021.2;;;7.7;100.0
73316;BME280;61545;53.726;-0.444;2023-04-15T21:40:03;1021.2;;;7.7;100.0
73316;BME280;61545;53.726;-0.444;2023-04-15T21:45:03;1021.3;;;7.7;100.0
73316;BME280;61545;53.726;-0.444;2023-04-15T21:50:03;1021.3;;;7.8;100.0
73316;BME280;61545;53.726;-0.444;2023-04-15T21:55:03;1021.3;;;7.7;100.0
73316;BME280;61545;53.726;-0.444;2023-04-15T22:00:03;1021.3;;;7.6;100.0
73316;BME280;61545;53.726;-0.444;2023-04-15T22:05:03;1021.3;;;7.4;100.0
73316;BME280;61545;53.726;-0.444;2023-04-15T22:10:03;1021.4;;;7.4;100.0
73316;BME280;61545;53.726;-0.444;2023-04-15T22:15:03;1021.4;;;7.6;100.0
73316;BME280;61545;53.726;-0.444;2023-04-15T22:20:03;1021.4;;;7.1;100.0
73316;BME280;61545;53.726;-0.444;2023-04-15T22:25:03;1021.4;;;7.2;100.0
73316;BME280;61545;53.726;-0.444;2023-04-15T22:30:03;1021.4;;;7.2;100.0
73316;BME280;61545;53.726;-0.444;2023-04-15T22:35:03;1021.5;;;7.2;100.0
73316;BME280;61545;53.726;-0.444;2023-04-15T22:40:03;1021.4;;;7.2;100.0
73316;BME280;61545;53.726;-0.444;2023-04-15T22:45:03;1021.5;;;7.3;100.0
73316;BME280;61545;53.726;-0.444;2023-04-15T22:50:03;1021.4;;;7.3;100.0
73316;BME280;61545;53.726;-0.444;2023-04-15T22:55:03;1021.4;;;7.3;100.0
73316;BME280;61545;53.726;-0.444;2023-04-15T23:00:03;1021.5;;;7.2;100.0
73316;BME280;61545;53.726;-0.444;2023-04-15T23:05:03;1021.5;;;7.4;100.0
73316;BME280;61545;53.726;-0.444;2023-04-15T23:10:03;1021.5;;;7.3;100.0
73316;BME280;61545;53.726;-0.444;2023-04-15T23:15:03;1021.6;;;7.3;100.0
73316;BME280;61545;53.726;-0.444;2023-04-15T23:20:03;1021.6;;;7.4;100.0
73316;BME280;61545;53.726;-0.444;2023-04-15T23:25:02;1021.6;;;7.2;100.0
73316;BME280;61545;53.726;-0.444;2023-04-15T23:30:03;1021.5;;;7.3;100.0
73316;BME280;61545;53.726;-0.444;2023-04-15T23:35:03;1021.6;;;7.4;100.0
73316;BME280;61545;53.726;-0.444;2023-04-15T23:40:03;1021.6;;;7.3;100.0
73316;BME280;61545;53.726;-0.444;2023-04-15T23:45:03;1021.6;;;7.5;100.0
73316;BME280;61545;53.726;-0.444;2023-04-15T23:50:03;1021.5;;;7.4;100.0
73316;BME280;61545;53.726;-0.444;2023-04-15T23:55:03;1021.5;;;7.4;100.0
